Addis, LA

9:23 PM CDT on March 26, 2015 (GMT -0500)
Iberville Parish Courthouse | | Change Station
CLOSE
Current Station
Personal Weather Station
Location: Plaquemine, LA
Elevation: 30 ft
Nearby Weather Stations
Active Advisory: Flood Warning

Elev 30 ft 30.29 °N, 91.24 °W | Updated 22 seconds ago

Overcast
Overcast
59.3 °F
Feels Like 59.3 °F
N
5.1
Wind Variable Wind from NE
Gusts 17.0 mph

Today
High -- | Low -- °F
--% Chance of Precip.
Yesterday
High -- | Low -- °F
Precip. -- in
7:01 AM 7:20 PM
Waxing Crescent, 48% visible
Pressure 29.92 in
Visibility 10.0 miles
Clouds Overcast 800 ft
Dew Point 56 °F
Humidity 92%
Rainfall 0.05 in
Snow Depth Not available.
UV 0 out of 12
Pollen 9.60 out of 12
Air Quality Not available.
Flu Activity Not available.
SPECI KBTR 270200Z 32009KT 10SM OVC008 15/14 A2992 RMK AO2 CIG 007V013 T01500139

More Conditions Fewer Conditions

Pressure 29.92 in
Visibility 10.0 miles
Clouds Overcast 800 ft
Dew Point 56 °F
Humidity 92%
Rainfall 0.05 in
Snow Depth Not available.
UV 0 out of 12
Pollen 9.60 out of 12
Air Quality Not available.
Flu Activity Not available.
SPECI KBTR 270200Z 32009KT 10SM OVC008 15/14 A2992 RMK AO2 CIG 007V013 T01500139

More Conditions Fewer Conditions

10-Day Weather Forecast

Almanac

Astronomy

Mar. 26, 2015 Rise Set
Actual Time
Civil Twilight
Nautical Twilight
Astronomical Twilight
Moon
Length of Visible Light
Length of Day
Tomorrow will be .
, % of the Moon is Illuminated

Today's Extremes

State Highs State Lows

Community

WunderPhotos

Upload Photos

1,808,688 photos uploaded!

WunderBlogs® & News

Nearby

Air Quality

  Air Quality AQ Index Pollutant
Not available.

Snow Depth

Station Depth Elevation

Earthquake Activity

City Distance Mag. Time & Date
Minimum magnitude displayed is 2.5.

Coastal Water Temperatures

Place Temperature

Stations

Nearby Weather Stations

Station Location Temp. Windchill Dew Point Humidity Wind Precip. Elev Updated Type
                   
Flood Warning
Statement as of 11:02 AM CDT on March 26, 2015

The Flood Warning continues for
the Mississippi River at Baton Rouge.
* From this evening until further notice.
* At 10:00 am Thursday the stage was 34.9 feet.
* Minor flooding is forecast.
* Flood stage is 35.0 feet.
* Forecast... the river is expected to rise above flood stage by this
evening and then continue to rise until cresting at around 35.5 feet
by next Sunday morning. The river is expected to remain at or near
35.5 feet through next Tuesday afternoon.
* Impact... at 35.0 feet... river islands from Red River Landing
downstream to Baton Rouge will be inundated.


Lat... Lon 3074 9130 3071 9159 3032 9130 3035 9113